createdAt,value
2023-03-16T00:01:22.340Z,3.60
2023-03-16T00:03:45.078Z,3.60
2023-03-16T00:06:07.746Z,3.70
2023-03-16T00:08:30.865Z,3.80
2023-03-16T00:10:54.328Z,3.75
2023-03-16T00:13:18.482Z,3.60
2023-03-16T00:15:41.695Z,3.63
2023-03-16T00:18:04.348Z,3.77
2023-03-16T00:20:27.888Z,3.85
2023-03-16T00:22:51.313Z,3.42
2023-03-16T00:25:14.816Z,3.60
2023-03-16T00:27:37.619Z,3.67
2023-03-16T00:30:03.343Z,4.10
2023-03-16T00:32:29.945Z,4.00
2023-03-16T00:34:52.644Z,3.60
2023-03-16T00:37:17.307Z,3.50
2023-03-16T00:39:40.868Z,3.95
2023-03-16T00:42:04.510Z,3.63
2023-03-16T00:44:27.141Z,3.58
2023-03-16T00:46:49.877Z,3.80
2023-03-16T00:49:12.554Z,3.70
2023-03-16T00:51:35.157Z,3.70
2023-03-16T00:53:57.683Z,3.80
2023-03-16T00:56:20.390Z,3.83
2023-03-16T00:58:43.955Z,3.72
2023-03-16T01:01:13.803Z,3.85
2023-03-16T01:03:37.096Z,4.00
2023-03-16T01:06:30.370Z,4.03
2023-03-16T01:08:53.229Z,3.92
2023-03-16T01:11:18.691Z,4.00
2023-03-16T01:13:41.322Z,4.00
2023-03-16T01:16:04.989Z,4.00
2023-03-16T01:18:28.631Z,3.97
2023-03-16T01:20:51.371Z,4.10
2023-03-16T01:23:14.002Z,3.95
2023-03-16T01:25:36.668Z,4.07
2023-03-16T01:27:59.295Z,4.30
2023-03-16T01:30:22.026Z,4.87
2023-03-16T01:32:45.082Z,4.20
2023-03-16T01:35:09.552Z,4.22
2023-03-16T01:37:32.205Z,4.32
2023-03-16T01:39:58.357Z,4.35
2023-03-16T01:42:21.026Z,4.03
2023-03-16T01:44:54.585Z,4.05
2023-03-16T01:47:18.593Z,4.07
2023-03-16T01:49:41.409Z,4.07
2023-03-16T01:52:12.605Z,3.95
2023-03-16T01:54:53.920Z,4.03
2023-03-16T01:57:20.166Z,3.88
2023-03-16T02:00:09.928Z,4.40
2023-03-16T02:02:44.521Z,4.55
2023-03-16T02:05:24.678Z,3.60
2023-03-16T02:07:49.777Z,3.80
2023-03-16T02:10:16.999Z,3.90
2023-03-16T02:12:39.823Z,4.03
2023-03-16T02:15:02.433Z,3.78
2023-03-16T02:17:28.132Z,3.70
2023-03-16T02:20:25.432Z,4.30
2023-03-16T02:22:54.395Z,4.00
2023-03-16T02:25:18.899Z,3.72
2023-03-16T02:28:06.847Z,4.13
2023-03-16T02:30:33.444Z,3.83
2023-03-16T02:32:58.121Z,3.80
2023-03-16T02:35:21.183Z,4.00
2023-03-16T02:37:44.798Z,4.35
2023-03-16T02:40:24.991Z,4.07
2023-03-16T02:42:56.596Z,4.28
2023-03-16T02:45:22.154Z,4.07
2023-03-16T02:47:46.959Z,4.53
2023-03-16T02:50:12.587Z,3.92
2023-03-16T02:52:36.174Z,3.70
2023-03-16T02:54:58.833Z,4.05
2023-03-16T02:57:21.432Z,3.93
2023-03-16T02:59:44.265Z,3.85
2023-03-16T03:02:08.877Z,4.00
2023-03-16T03:04:33.209Z,4.00
2023-03-16T03:06:55.857Z,4.40
2023-03-16T03:09:19.551Z,4.80
2023-03-16T03:11:46.769Z,4.53
2023-03-16T03:14:10.139Z,4.43
2023-03-16T03:16:35.486Z,3.92
2023-03-16T03:18:58.641Z,4.22
2023-03-16T03:21:24.177Z,4.93
2023-03-16T03:23:47.215Z,4.88
2023-03-16T03:26:09.850Z,4.97
2023-03-16T03:28:34.361Z,4.55
2023-03-16T03:30:57.830Z,4.53
2023-03-16T03:33:22.517Z,4.70
2023-03-16T03:35:46.833Z,4.40
2023-03-16T03:38:09.798Z,4.47
2023-03-16T03:40:32.539Z,4.82
2023-03-16T03:42:58.810Z,4.97
2023-03-16T03:45:21.913Z,4.60
2023-03-16T03:47:45.214Z,4.40
2023-03-16T03:50:14.141Z,4.43
2023-03-16T03:52:52.954Z,4.47
2023-03-16T03:55:15.649Z,4.70
2023-03-16T03:57:38.766Z,4.57
2023-03-16T04:00:01.498Z,4.78
2023-03-16T04:02:36.511Z,4.80
2023-03-16T04:05:01.056Z,5.00
2023-03-16T04:07:25.268Z,4.63
2023-03-16T04:09:51.835Z,4.00
2023-03-16T04:12:30.511Z,5.38
2023-03-16T04:14:53.218Z,5.13
2023-03-16T04:17:17.602Z,4.70
2023-03-16T04:19:41.320Z,4.47
2023-03-16T04:22:08.515Z,4.80
2023-03-16T04:24:34.362Z,4.50
2023-03-16T04:26:57.148Z,4.72
2023-03-16T04:29:20.581Z,4.88
2023-03-16T04:31:44.628Z,5.05
2023-03-16T04:34:08.972Z,5.10
2023-03-16T04:36:33.095Z,4.90
2023-03-16T04:38:57.566Z,5.15
2023-03-16T04:41:20.361Z,5.10
2023-03-16T04:43:52.989Z,4.70
2023-03-16T04:46:19.307Z,5.00
2023-03-16T04:48:42.334Z,5.18
2023-03-16T04:51:05.973Z,5.55
2023-03-16T04:53:32.090Z,5.20
2023-03-16T04:55:59.759Z,4.85
2023-03-16T04:58:22.886Z,4.90
2023-03-16T05:00:48.149Z,5.22
2023-03-16T05:03:18.170Z,5.18
2023-03-16T05:05:42.533Z,5.13
2023-03-16T05:08:07.355Z,5.30
2023-03-16T05:10:33.303Z,5.47
2023-03-16T05:12:56.216Z,5.53
2023-03-16T05:15:18.899Z,5.65
2023-03-16T05:17:51.728Z,5.65
2023-03-16T05:20:16.323Z,5.22
2023-03-16T05:22:45.322Z,5.37
2023-03-16T05:25:21.749Z,5.47
2023-03-16T05:27:52.320Z,5.50
2023-03-16T05:30:23.084Z,5.40
2023-03-16T05:32:47.779Z,5.22
2023-03-16T05:35:13.583Z,5.50
2023-03-16T05:37:38.188Z,5.47
2023-03-16T05:40:12.070Z,5.65
2023-03-16T05:42:35.106Z,6.10
2023-03-16T05:44:58.299Z,5.55
2023-03-16T05:47:29.867Z,6.57
2023-03-16T05:49:53.568Z,5.75
2023-03-16T05:52:21.725Z,5.82
2023-03-16T05:54:44.287Z,5.88
2023-03-16T05:57:07.160Z,5.45
2023-03-16T05:59:30.880Z,5.97
2023-03-16T06:01:55.442Z,5.90
2023-03-16T06:04:18.180Z,5.50
2023-03-16T06:06:41.083Z,6.07
2023-03-16T06:09:15.546Z,5.70
2023-03-16T06:11:38.403Z,5.90
2023-03-16T06:14:01.666Z,5.50
2023-03-16T06:16:25.268Z,6.63
2023-03-16T06:18:48.071Z,5.43
2023-03-16T06:21:11.231Z,6.20
2023-03-16T06:23:34.953Z,6.73
2023-03-16T06:26:00.700Z,7.00
2023-03-16T06:28:27.605Z,6.00
2023-03-16T06:30:55.195Z,6.50
2023-03-16T06:33:19.668Z,6.18
2023-03-16T06:35:42.649Z,6.87
2023-03-16T06:38:11.617Z,6.63
2023-03-16T06:40:54.266Z,6.78
2023-03-16T06:43:18.089Z,6.75
2023-03-16T06:45:42.035Z,6.85
2023-03-16T06:48:05.179Z,6.83
2023-03-16T06:50:30.200Z,6.90
2023-03-16T06:52:54.600Z,6.45
2023-03-16T06:55:21.112Z,8.18
2023-03-16T06:57:45.584Z,7.18
2023-03-16T07:00:10.408Z,6.37
2023-03-16T07:02:35.848Z,6.50
2023-03-16T07:04:59.654Z,7.35
2023-03-16T07:07:22.562Z,8.48
2023-03-16T07:09:45.461Z,7.13
2023-03-16T07:12:10.032Z,6.70
2023-03-16T07:14:33.841Z,6.45
2023-03-16T07:16:56.754Z,6.05
2023-03-16T07:20:07.296Z,6.88
2023-03-16T07:23:46.403Z,6.90
2023-03-16T07:26:50.815Z,6.70
2023-03-16T07:29:56.357Z,6.35
2023-03-16T07:32:19.532Z,7.50
2023-03-16T07:34:43.301Z,7.40
2023-03-16T07:37:08.252Z,7.13
2023-03-16T07:39:31.874Z,7.22
2023-03-16T07:42:02.045Z,7.97
2023-03-16T07:44:34.013Z,6.88
2023-03-16T07:46:56.790Z,6.72
2023-03-16T07:49:22.867Z,7.50
2023-03-16T07:51:46.360Z,6.50
2023-03-16T07:54:10.908Z,7.88
2023-03-16T07:56:47.922Z,7.43
2023-03-16T07:59:21.979Z,7.40
2023-03-16T08:01:46.372Z,7.25
2023-03-16T08:04:12.425Z,7.03
2023-03-16T08:06:37.280Z,6.70
2023-03-16T08:09:00.282Z,8.00
2023-03-16T08:11:31.108Z,7.63
2023-03-16T08:13:59.083Z,6.55
2023-03-16T08:16:38.772Z,6.55
2023-03-16T08:19:03.636Z,6.82
2023-03-16T08:21:28.604Z,6.68
2023-03-16T08:23:52.068Z,6.32
2023-03-16T08:26:17.762Z,6.50
2023-03-16T08:28:41.141Z,5.60
2023-03-16T08:31:09.494Z,5.95
2023-03-16T08:33:55.066Z,5.60
2023-03-16T08:36:22.258Z,5.50
2023-03-16T08:39:03.819Z,5.97
2023-03-16T08:41:31.083Z,5.37
2023-03-16T08:43:57.995Z,5.43
2023-03-16T08:46:21.575Z,4.82
2023-03-16T08:48:50.356Z,5.40
2023-03-16T08:51:13.313Z,4.78
2023-03-16T08:53:39.839Z,4.70
2023-03-16T08:56:05.067Z,5.15
2023-03-16T08:58:27.760Z,4.97
2023-03-16T09:00:53.162Z,5.18
2023-03-16T09:03:16.892Z,5.07
2023-03-16T09:05:42.624Z,5.20
2023-03-16T09:08:06.610Z,4.97
2023-03-16T09:10:30.368Z,5.10
2023-03-16T09:12:54.008Z,5.38
2023-03-16T09:15:16.992Z,5.32
2023-03-16T09:17:41.778Z,4.83
2023-03-16T09:20:21.817Z,4.72
2023-03-16T09:22:52.842Z,4.78
2023-03-16T09:25:16.106Z,4.97
2023-03-16T09:27:39.865Z,3.97
2023-03-16T09:30:05.425Z,4.57
2023-03-16T09:32:28.676Z,5.00
2023-03-16T09:34:51.764Z,5.32
2023-03-16T09:37:14.722Z,5.97
2023-03-16T09:39:39.782Z,5.82
2023-03-16T09:42:13.940Z,4.73
2023-03-16T09:45:05.623Z,5.05
2023-03-16T09:47:31.110Z,4.63
2023-03-16T09:50:01.478Z,4.55
2023-03-16T09:52:37.444Z,4.80
2023-03-16T09:55:21.460Z,4.43
2023-03-16T09:57:46.992Z,4.93
2023-03-16T10:00:49.026Z,4.80
2023-03-16T10:03:42.177Z,4.32
2023-03-16T10:06:10.133Z,4.63
2023-03-16T10:08:35.791Z,5.07
2023-03-16T10:11:36.889Z,4.88
2023-03-16T10:14:27.677Z,4.90
2023-03-16T10:17:01.715Z,4.70
2023-03-16T10:19:51.415Z,5.10
2023-03-16T10:22:26.730Z,5.05
2023-03-16T10:24:56.962Z,4.57
2023-03-16T10:27:28.783Z,4.75
2023-03-16T10:30:12.246Z,4.60
2023-03-16T10:32:57.817Z,4.97
2023-03-16T10:35:51.581Z,5.33
2023-03-16T10:38:43.332Z,4.43
2023-03-16T10:41:18.228Z,5.55
2023-03-16T10:43:42.226Z,4.60
2023-03-16T10:46:05.362Z,5.25
2023-03-16T10:48:35.034Z,4.93
2023-03-16T10:50:58.233Z,5.07
2023-03-16T10:53:32.114Z,4.95
2023-03-16T10:56:00.552Z,4.72
2023-03-16T10:58:30.780Z,4.72
2023-03-16T11:00:56.486Z,4.50
2023-03-16T11:03:23.046Z,4.63
2023-03-16T11:05:45.986Z,5.25
2023-03-16T11:08:12.252Z,5.03
2023-03-16T11:10:55.420Z,4.95
2023-03-16T11:13:20.730Z,4.93
2023-03-16T11:15:55.928Z,4.97
2023-03-16T11:18:43.793Z,4.88
2023-03-16T11:21:34.982Z,4.50
2023-03-16T11:23:59.920Z,4.18
2023-03-16T11:26:34.841Z,4.60
2023-03-16T11:29:09.452Z,4.10
2023-03-16T11:31:42.727Z,4.13
2023-03-16T11:34:15.668Z,4.28
2023-03-16T11:37:04.341Z,3.83
2023-03-16T11:39:47.830Z,3.95
2023-03-16T11:42:13.901Z,4.20
2023-03-16T11:44:42.145Z,4.55
2023-03-16T11:47:16.975Z,3.70
2023-03-16T11:50:12.079Z,3.50
2023-03-16T11:52:46.555Z,3.70
2023-03-16T11:55:27.634Z,4.90
2023-03-16T11:58:12.316Z,3.40
2023-03-16T12:00:53.487Z,4.13
2023-03-16T12:03:48.415Z,3.80
2023-03-16T12:06:29.813Z,3.25
2023-03-16T12:09:20.154Z,3.40
2023-03-16T12:11:54.429Z,3.40
2023-03-16T12:14:30.960Z,3.05
2023-03-16T12:17:16.835Z,3.15
2023-03-16T12:19:51.226Z,2.90
2023-03-16T12:22:22.888Z,2.60
2023-03-16T12:24:48.343Z,2.38
2023-03-16T12:27:19.288Z,2.75
2023-03-16T12:30:05.631Z,2.40
2023-03-16T12:32:53.675Z,2.08
2023-03-16T12:35:16.800Z,1.98
2023-03-16T12:38:15.230Z,2.22
2023-03-16T12:40:59.835Z,2.10
2023-03-16T12:43:42.932Z,2.10
2023-03-16T12:46:30.528Z,2.35
2023-03-16T12:49:06.289Z,1.80
2023-03-16T12:51:35.083Z,2.22
2023-03-16T12:53:59.604Z,1.90
2023-03-16T12:56:32.651Z,2.10
2023-03-16T12:58:58.356Z,1.88
2023-03-16T13:01:30.944Z,1.98
2023-03-16T13:04:02.671Z,2.30
2023-03-16T13:06:31.090Z,2.10
2023-03-16T13:08:59.788Z,2.78
2023-03-16T13:11:22.843Z,1.80
2023-03-16T13:13:52.233Z,2.10
2023-03-16T13:16:26.016Z,2.15
2023-03-16T13:18:49.355Z,2.20
2023-03-16T13:21:40.278Z,1.42
2023-03-16T13:24:12.646Z,2.10
2023-03-16T13:26:43.991Z,1.52
2023-03-16T13:29:20.632Z,1.75
2023-03-16T13:31:43.618Z,2.00
2023-03-16T13:34:12.288Z,1.70
2023-03-16T13:36:36.067Z,2.00
2023-03-16T13:39:21.563Z,1.95
2023-03-16T13:41:59.715Z,2.00
2023-03-16T13:44:24.215Z,1.60
2023-03-16T13:46:50.875Z,2.38
2023-03-16T13:49:13.655Z,2.17
2023-03-16T13:51:38.509Z,1.98
2023-03-16T13:54:06.515Z,1.67
2023-03-16T13:56:31.393Z,2.00
2023-03-16T13:58:57.850Z,1.70
2023-03-16T14:01:39.004Z,1.90
2023-03-16T14:04:11.930Z,1.98
2023-03-16T14:06:35.924Z,2.03
2023-03-16T14:09:03.021Z,1.95
2023-03-16T14:11:28.987Z,1.60
2023-03-16T14:13:57.030Z,1.90
2023-03-16T14:16:20.384Z,1.70
2023-03-16T14:18:56.120Z,1.80
2023-03-16T14:21:23.834Z,2.20
2023-03-16T14:23:51.684Z,2.00
2023-03-16T14:26:18.806Z,2.17
2023-03-16T14:28:53.730Z,2.13
2023-03-16T14:31:20.991Z,1.88
2023-03-16T14:33:46.107Z,1.90
2023-03-16T14:36:14.206Z,2.20
2023-03-16T14:38:40.774Z,2.05
2023-03-16T14:41:12.307Z,1.50
2023-03-16T14:43:45.080Z,2.10
2023-03-16T14:46:08.728Z,2.10
2023-03-16T14:48:32.795Z,1.67
2023-03-16T14:50:58.555Z,1.80
2023-03-16T14:53:21.709Z,2.17
2023-03-16T14:55:45.004Z,2.25
2023-03-16T14:58:07.665Z,2.00
2023-03-16T15:00:32.984Z,1.85
2023-03-16T15:03:03.367Z,1.80
2023-03-16T15:05:36.624Z,1.90
2023-03-16T15:08:00.123Z,1.80
2023-03-16T15:10:25.607Z,1.88
2023-03-16T15:12:54.305Z,1.83
2023-03-16T15:15:23.010Z,2.15
2023-03-16T15:17:46.572Z,2.00
2023-03-16T15:20:12.299Z,2.28
2023-03-16T15:22:38.203Z,1.80
2023-03-16T15:25:23.376Z,1.77
2023-03-16T15:27:47.660Z,2.17
2023-03-16T15:30:17.164Z,2.08
2023-03-16T15:32:39.840Z,2.45
2023-03-16T15:35:02.417Z,1.92
2023-03-16T15:37:27.828Z,1.80
2023-03-16T15:39:50.654Z,1.80
2023-03-16T15:42:18.300Z,1.90
2023-03-16T15:44:41.662Z,2.30
2023-03-16T15:47:04.660Z,2.80
2023-03-16T15:49:30.212Z,2.42
2023-03-16T15:51:55.026Z,2.03
2023-03-16T15:54:17.774Z,1.95
2023-03-16T15:56:53.756Z,2.20
2023-03-16T15:59:17.504Z,1.85
2023-03-16T16:01:45.171Z,1.65
2023-03-16T16:04:15.481Z,1.90
2023-03-16T16:06:38.193Z,2.40
2023-03-16T16:09:01.683Z,2.05
2023-03-16T16:11:27.280Z,1.88
2023-03-16T16:13:50.704Z,1.80
2023-03-16T16:16:16.002Z,2.10
2023-03-16T16:18:39.762Z,1.80
2023-03-16T16:21:05.196Z,2.00
2023-03-16T16:23:28.175Z,1.80
2023-03-16T16:25:52.268Z,2.20
2023-03-16T16:28:21.279Z,2.50
2023-03-16T16:30:44.545Z,2.30
2023-03-16T16:33:27.418Z,2.70
2023-03-16T16:35:50.260Z,2.72
2023-03-16T16:38:13.003Z,2.50
2023-03-16T16:40:39.196Z,2.50
2023-03-16T16:43:04.728Z,3.05
2023-03-16T16:45:27.721Z,3.55
2023-03-16T16:47:53.385Z,3.00
2023-03-16T16:50:18.284Z,2.55
2023-03-16T16:52:40.911Z,2.33
2023-03-16T16:55:03.805Z,2.53
2023-03-16T16:57:26.608Z,2.65
2023-03-16T16:59:49.668Z,2.80
2023-03-16T17:02:40.986Z,2.70
2023-03-16T17:05:05.118Z,3.37
2023-03-16T17:07:27.878Z,3.80
2023-03-16T17:09:51.038Z,5.03
2023-03-16T17:12:21.417Z,3.85
2023-03-16T17:14:44.856Z,3.92
2023-03-16T17:17:13.523Z,4.00
2023-03-16T17:19:36.466Z,4.00
2023-03-16T17:21:59.262Z,4.00
2023-03-16T17:24:22.861Z,4.80
2023-03-16T17:26:53.008Z,5.68
2023-03-16T17:29:24.460Z,6.30
2023-03-16T17:31:49.412Z,7.18
2023-03-16T17:34:20.942Z,7.32
2023-03-16T17:36:44.737Z,7.63
2023-03-16T17:39:21.148Z,8.15
2023-03-16T17:41:45.050Z,8.93
2023-03-16T17:44:12.741Z,10.18
2023-03-16T17:46:35.743Z,9.95
2023-03-16T17:49:00.209Z,8.80
2023-03-16T17:51:25.588Z,8.27
2023-03-16T17:53:49.088Z,7.20
2023-03-16T17:56:24.550Z,7.57
2023-03-16T17:58:53.356Z,7.22
2023-03-16T18:01:17.617Z,7.70
2023-03-16T18:03:44.155Z,8.00
2023-03-16T18:06:07.694Z,6.90
2023-03-16T18:08:34.193Z,6.30
2023-03-16T18:11:03.660Z,6.70
2023-03-16T18:13:31.661Z,6.38
2023-03-16T18:15:55.881Z,6.07
2023-03-16T18:18:21.954Z,7.30
2023-03-16T18:20:44.918Z,6.38
2023-03-16T18:23:16.267Z,7.20
2023-03-16T18:25:39.577Z,7.93
2023-03-16T18:28:02.950Z,7.60
2023-03-16T18:30:27.200Z,6.90
2023-03-16T18:32:51.051Z,5.65
2023-03-16T18:35:16.892Z,5.70
2023-03-16T18:37:40.405Z,5.55
2023-03-16T18:40:03.629Z,5.50
2023-03-16T18:42:29.736Z,5.70
2023-03-16T18:44:52.709Z,6.22
2023-03-16T18:47:18.973Z,6.20
2023-03-16T18:49:43.694Z,5.97
2023-03-16T18:52:16.722Z,5.28
2023-03-16T18:54:39.645Z,5.23
2023-03-16T18:57:04.468Z,6.38
2023-03-16T18:59:27.711Z,5.70
2023-03-16T19:01:51.843Z,5.93
2023-03-16T19:04:35.151Z,8.20
2023-03-16T19:06:58.417Z,7.90
2023-03-16T19:09:27.711Z,8.27
2023-03-16T19:11:51.223Z,8.18
2023-03-16T19:14:20.610Z,8.30
2023-03-16T19:16:45.304Z,8.00
2023-03-16T19:19:08.927Z,8.00
2023-03-16T19:21:32.834Z,5.85
2023-03-16T19:23:59.234Z,6.00
2023-03-16T19:26:22.843Z,6.68
2023-03-16T19:28:46.206Z,7.13
2023-03-16T19:31:16.655Z,6.73
2023-03-16T19:33:39.943Z,7.07
2023-03-16T19:36:03.016Z,7.32
2023-03-16T19:38:26.403Z,6.88
2023-03-16T19:40:59.653Z,6.32
2023-03-16T19:43:23.763Z,6.27
2023-03-16T19:45:48.399Z,6.63
2023-03-16T19:48:14.970Z,6.15
2023-03-16T19:50:38.279Z,6.20
2023-03-16T19:53:00.996Z,4.95
2023-03-16T19:55:29.998Z,5.47
2023-03-16T19:57:59.869Z,5.18
2023-03-16T20:00:26.202Z,5.40
2023-03-16T20:02:49.640Z,6.20
2023-03-16T20:05:18.444Z,5.95
2023-03-16T20:07:41.431Z,6.07
2023-03-16T20:10:06.035Z,6.35
2023-03-16T20:12:30.387Z,6.13
2023-03-16T20:14:54.143Z,6.65
2023-03-16T20:17:29.179Z,6.93
2023-03-16T20:19:52.425Z,6.70
2023-03-16T20:22:24.155Z,6.75
2023-03-16T20:24:51.223Z,6.60
2023-03-16T20:27:15.316Z,6.38
2023-03-16T20:29:38.624Z,7.18
2023-03-16T20:32:03.291Z,7.37
2023-03-16T20:34:32.313Z,7.13
2023-03-16T20:36:56.042Z,7.18
2023-03-16T20:39:19.025Z,6.38
2023-03-16T20:41:42.621Z,6.65
2023-03-16T20:44:06.090Z,6.43
2023-03-16T20:46:31.099Z,6.18
2023-03-16T20:48:54.719Z,6.70
2023-03-16T20:51:18.401Z,6.28
2023-03-16T20:53:43.886Z,6.63
2023-03-16T20:56:20.826Z,6.77
2023-03-16T20:58:47.875Z,6.95
2023-03-16T21:01:18.893Z,7.13
2023-03-16T21:03:41.723Z,6.65
2023-03-16T21:06:09.622Z,7.07
2023-03-16T21:08:32.484Z,6.93
2023-03-16T21:11:16.199Z,7.25
2023-03-16T21:13:38.940Z,7.53
2023-03-16T21:16:03.482Z,7.05
2023-03-16T21:18:26.446Z,7.60
2023-03-16T21:20:50.252Z,7.30
2023-03-16T21:23:16.383Z,7.15
2023-03-16T21:25:45.700Z,7.60
2023-03-16T21:28:12.013Z,7.55
2023-03-16T21:30:42.669Z,6.78
2023-03-16T21:33:17.815Z,7.10
2023-03-16T21:35:40.741Z,6.70
2023-03-16T21:38:17.806Z,6.47
2023-03-16T21:40:41.130Z,7.05
2023-03-16T21:43:04.130Z,7.25
2023-03-16T21:45:27.057Z,7.03
2023-03-16T21:47:49.931Z,7.00
2023-03-16T21:50:17.323Z,6.70
2023-03-16T21:52:42.692Z,6.80
2023-03-16T21:55:06.551Z,6.65
2023-03-16T21:57:29.352Z,6.87
2023-03-16T21:59:52.043Z,6.63
2023-03-16T22:02:22.683Z,6.78
2023-03-16T22:04:45.699Z,6.65
2023-03-16T22:07:12.550Z,6.85
2023-03-16T22:09:35.322Z,6.40
2023-03-16T22:11:58.007Z,6.35
2023-03-16T22:14:20.966Z,6.22
2023-03-16T22:16:43.896Z,6.10
2023-03-16T22:19:13.442Z,6.80
2023-03-16T22:21:39.096Z,5.87
2023-03-16T22:24:05.393Z,6.03
2023-03-16T22:26:28.906Z,7.25
2023-03-16T22:28:52.521Z,7.15
2023-03-16T22:31:18.852Z,7.38
2023-03-16T22:33:43.061Z,7.70
2023-03-16T22:36:09.615Z,7.78
2023-03-16T22:38:32.729Z,8.38
2023-03-16T22:40:55.357Z,8.48
2023-03-16T22:43:22.849Z,7.25
2023-03-16T22:45:45.502Z,8.00
2023-03-16T22:48:21.755Z,8.30
2023-03-16T22:50:46.637Z,7.78
2023-03-16T22:53:18.113Z,7.97
2023-03-16T22:55:41.033Z,8.00
2023-03-16T22:58:12.837Z,8.13
2023-03-16T23:00:36.115Z,8.05
2023-03-16T23:02:59.198Z,8.85
2023-03-16T23:05:25.388Z,8.40
2023-03-16T23:07:48.201Z,7.82
2023-03-16T23:10:15.879Z,8.23
2023-03-16T23:12:38.671Z,8.32
2023-03-16T23:15:01.288Z,8.27
2023-03-16T23:17:23.856Z,8.40
2023-03-16T23:19:48.011Z,7.32
2023-03-16T23:22:11.434Z,7.73
2023-03-16T23:24:35.133Z,7.57
2023-03-16T23:26:58.202Z,7.72
2023-03-16T23:29:22.565Z,7.43
2023-03-16T23:31:45.460Z,7.25
2023-03-16T23:34:12.381Z,7.27
2023-03-16T23:36:35.144Z,7.35
2023-03-16T23:38:57.964Z,7.82
2023-03-16T23:41:23.741Z,7.80
2023-03-16T23:43:47.906Z,7.75
2023-03-16T23:46:11.776Z,7.37
2023-03-16T23:48:34.618Z,7.50
2023-03-16T23:50:57.871Z,7.57
2023-03-16T23:53:21.361Z,7.82
2023-03-16T23:55:45.120Z,7.15
2023-03-16T23:58:08.079Z,7.20
